Time,TemperatureF,DewpointF,PressureIn,WindDirection,WindDirectionDegrees,WindSpeedMPH,WindSpeedGustMPH,Humidity,HourlyPrecipIn,Conditions,Clouds,dailyrainin,SoftwareType,DateUTC
2013-11-05 00:04:00,60.0,47.4,29.84,ESE,112,0.0,1.0,63,0.00,,SKC,0.00,VWS V14.01,2013-11-05 07:04:00,
2013-11-05 00:09:00,60.0,47.0,29.84,ESE,112,0.0,0.0,62,0.00,,SKC,0.00,VWS V14.01,2013-11-05 07:09:00,
2013-11-05 00:14:00,60.0,47.4,29.84,ESE,112,1.0,2.0,63,0.00,,SKC,0.00,VWS V14.01,2013-11-05 07:14:00,
2013-11-05 00:19:00,60.0,47.4,29.84,ESE,112,0.0,1.0,63,0.00,,SKC,0.00,VWS V14.01,2013-11-05 07:19:00,
2013-11-05 00:24:00,59.0,46.0,29.84,WNW,292,0.0,0.0,62,0.00,,SKC,0.00,VWS V14.01,2013-11-05 07:24:00,
2013-11-05 00:29:00,59.0,46.4,29.84,NW,315,4.0,4.0,63,0.00,,SKC,0.00,VWS V14.01,2013-11-05 07:29:00,
2013-11-05 00:34:00,59.0,46.0,29.84,WNW,292,3.0,3.0,62,0.00,,SKC,0.00,VWS V14.01,2013-11-05 07:34:00,
2013-11-05 00:39:00,59.0,45.2,29.84,West,270,3.0,5.0,60,0.00,,SKC,0.00,VWS V14.01,2013-11-05 07:39:00,
2013-11-05 00:44:00,59.0,45.2,29.84,WSW,248,5.0,5.0,60,0.00,,SKC,0.00,VWS V14.01,2013-11-05 07:44:00,
2013-11-05 00:49:00,59.0,45.2,29.84,WSW,248,2.0,3.0,60,0.00,,SKC,0.00,VWS V14.01,2013-11-05 07:49:00,
2013-11-05 00:54:00,59.0,45.6,29.84,SW,225,2.0,2.0,61,0.00,,SKC,0.00,VWS V14.01,2013-11-05 07:54:00,
2013-11-05 00:59:00,58.0,45.5,29.84,WSW,248,4.0,4.0,63,0.00,,SKC,0.00,VWS V14.01,2013-11-05 07:59:00,
2013-11-05 01:04:00,58.0,45.1,29.84,WSW,248,4.0,4.0,62,0.00,,SKC,0.00,VWS V14.01,2013-11-05 08:04:00,
2013-11-05 01:09:00,58.0,45.1,29.84,SW,225,3.0,3.0,62,0.00,,SKC,0.00,VWS V14.01,2013-11-05 08:09:00,
2013-11-05 01:14:00,58.0,45.5,29.84,SW,225,3.0,3.0,63,0.00,,SKC,0.00,VWS V14.01,2013-11-05 08:14:00,
2013-11-05 01:19:00,57.0,44.1,29.84,WSW,248,3.0,3.0,62,0.00,,SKC,0.00,VWS V14.01,2013-11-05 08:19:00,
2013-11-05 01:24:00,57.0,44.5,29.85,WSW,248,4.0,5.0,63,0.00,,SKC,0.00,VWS V14.01,2013-11-05 08:24:00,
2013-11-05 01:29:00,57.0,44.5,29.85,SW,225,0.0,1.0,63,0.00,,SKC,0.00,VWS V14.01,2013-11-05 08:29:00,
2013-11-05 01:34:00,57.0,44.5,29.85,SW,225,0.0,0.0,63,0.00,,SKC,0.00,VWS V14.01,2013-11-05 08:34:00,
2013-11-05 01:39:00,57.0,45.4,29.84,SW,225,1.0,1.0,65,0.00,,SKC,0.00,VWS V14.01,2013-11-05 08:39:00,
2013-11-05 01:44:00,56.0,44.8,29.85,SW,225,0.0,1.0,66,0.00,,SKC,0.00,VWS V14.01,2013-11-05 08:44:00,
2013-11-05 01:49:00,56.0,44.8,29.85,SW,225,1.0,1.0,66,0.00,,SKC,0.00,VWS V14.01,2013-11-05 08:49:00,
2013-11-05 01:54:00,56.0,45.2,29.85,SW,225,0.0,0.0,67,0.00,,SKC,0.00,VWS V14.01,2013-11-05 08:54:00,
2013-11-05 01:59:00,56.0,45.6,29.85,SW,225,0.0,0.0,68,0.00,,SKC,0.00,VWS V14.01,2013-11-05 08:59:00,
2013-11-05 02:04:00,56.0,45.2,29.85,SW,225,0.0,1.0,67,0.00,,SKC,0.00,VWS V14.01,2013-11-05 09:04:00,
2013-11-05 02:09:00,56.0,45.2,29.85,SW,225,1.0,1.0,67,0.00,,SKC,0.00,VWS V14.01,2013-11-05 09:09:00,
2013-11-05 02:14:00,56.0,45.6,29.85,SW,225,0.0,0.0,68,0.00,,SKC,0.00,VWS V14.01,2013-11-05 09:14:00,
2013-11-05 02:19:00,56.0,45.6,29.85,SW,225,1.0,1.0,68,0.00,,SKC,0.00,VWS V14.01,2013-11-05 09:19:00,
2013-11-05 02:24:00,56.0,45.2,29.85,SW,225,0.0,0.0,67,0.00,,SKC,0.00,VWS V14.01,2013-11-05 09:24:00,
2013-11-05 02:29:00,56.0,45.6,29.86,SW,225,0.0,0.0,68,0.00,,SKC,0.00,VWS V14.01,2013-11-05 09:29:00,
2013-11-05 02:34:00,55.0,44.7,29.86,SW,225,1.0,1.0,68,0.00,,SKC,0.00,VWS V14.01,2013-11-05 09:34:00,
2013-11-05 02:39:00,55.0,44.7,29.86,SW,225,2.0,3.0,68,0.00,,SKC,0.00,VWS V14.01,2013-11-05 09:39:00,
2013-11-05 02:44:00,55.0,44.7,29.86,SW,225,2.0,3.0,68,0.00,,SKC,0.00,VWS V14.01,2013-11-05 09:44:00,
2013-11-05 02:49:00,56.0,44.8,29.86,SW,225,2.0,2.0,66,0.00,,SKC,0.00,VWS V14.01,2013-11-05 09:49:00,
2013-11-05 02:54:00,56.0,45.2,29.86,SW,225,0.0,0.0,67,0.00,,SKC,0.00,VWS V14.01,2013-11-05 09:54:00,
2013-11-05 02:59:00,56.0,44.8,29.86,SW,225,0.0,0.0,66,0.00,,SKC,0.00,VWS V14.01,2013-11-05 09:59:00,
2013-11-05 03:04:00,55.0,44.7,29.86,SW,225,1.0,1.0,68,0.00,,SKC,0.00,VWS V14.01,2013-11-05 10:04:00,
2013-11-05 03:09:00,55.0,45.4,29.86,SW,225,1.0,2.0,70,0.00,,SKC,0.00,VWS V14.01,2013-11-05 10:09:00,
2013-11-05 03:14:00,55.0,45.0,29.86,SW,225,0.0,0.0,69,0.00,,SKC,0.00,VWS V14.01,2013-11-05 10:14:00,
2013-11-05 03:19:00,54.0,44.1,29.86,SW,225,0.0,0.0,69,0.00,,SKC,0.00,VWS V14.01,2013-11-05 10:19:00,
2013-11-05 03:25:00,54.0,44.5,29.86,SW,225,2.0,2.0,70,0.00,,SKC,0.00,VWS V14.01,2013-11-05 10:25:00,
2013-11-05 03:31:00,54.0,44.5,29.86,SW,225,0.0,0.0,70,0.00,,SKC,0.00,VWS V14.01,2013-11-05 10:31:00,
2013-11-05 03:36:00,54.0,44.8,29.86,SW,225,1.0,1.0,71,0.00,,SKC,0.00,VWS V14.01,2013-11-05 10:36:00,
2013-11-05 03:41:00,54.0,44.8,29.86,SW,225,0.0,0.0,71,0.00,,SKC,0.00,VWS V14.01,2013-11-05 10:41:00,
2013-11-05 03:46:00,53.0,43.9,29.86,SW,225,0.0,0.0,71,0.00,,SKC,0.00,VWS V14.01,2013-11-05 10:46:00,
2013-11-05 03:51:00,53.0,43.9,29.86,SW,225,0.0,0.0,71,0.00,,SKC,0.00,VWS V14.01,2013-11-05 10:51:00,
2013-11-05 03:56:00,54.0,44.8,29.87,SW,225,1.0,1.0,71,0.00,,SKC,0.00,VWS V14.01,2013-11-05 10:56:00,
2013-11-05 04:01:00,53.0,44.6,29.87,NNW,338,1.0,1.0,73,0.00,,SKC,0.00,VWS V14.01,2013-11-05 11:01:00,
2013-11-05 04:06:00,53.0,45.3,29.87,NNW,338,2.0,3.0,75,0.00,,SKC,0.00,VWS V14.01,2013-11-05 11:06:00,
2013-11-05 04:11:00,53.0,45.0,29.87,NNW,338,0.0,0.0,74,0.00,,SKC,0.00,VWS V14.01,2013-11-05 11:11:00,
2013-11-05 04:17:00,53.0,44.6,29.87,NNW,338,0.0,0.0,73,0.00,,SKC,0.00,VWS V14.01,2013-11-05 11:17:00,
2013-11-05 04:22:00,53.0,45.0,29.87,NNW,338,0.0,0.0,74,0.00,,SKC,0.00,VWS V14.01,2013-11-05 11:22:00,
2013-11-05 04:27:00,53.0,45.0,29.87,NNW,338,0.0,0.0,74,0.00,,SKC,0.00,VWS V14.01,2013-11-05 11:27:00,
2013-11-05 04:32:00,53.0,45.0,29.87,NE,45,3.0,3.0,74,0.00,,SKC,0.00,VWS V14.01,2013-11-05 11:32:00,
2013-11-05 04:37:00,53.0,45.7,29.87,NNE,22,1.0,1.0,76,0.00,,SKC,0.00,VWS V14.01,2013-11-05 11:37:00,
2013-11-05 04:42:00,53.0,46.0,29.87,NNE,22,3.0,3.0,77,0.00,,SKC,0.00,VWS V14.01,2013-11-05 11:42:00,
2013-11-05 04:47:00,52.0,45.4,29.87,NNE,22,3.0,3.0,78,0.00,,SKC,0.00,VWS V14.01,2013-11-05 11:47:00,
2013-11-05 04:52:00,52.0,45.4,29.87,NNE,22,4.0,4.0,78,0.00,,SKC,0.00,VWS V14.01,2013-11-05 11:52:00,
2013-11-05 04:57:00,52.0,45.4,29.87,NE,45,1.0,2.0,78,0.00,,SKC,0.00,VWS V14.01,2013-11-05 11:57:00,
2013-11-05 05:03:00,52.0,45.4,29.88,NNE,22,2.0,3.0,78,0.00,,SKC,0.00,VWS V14.01,2013-11-05 12:03:00,
2013-11-05 05:09:00,52.0,45.4,29.88,NNE,22,1.0,1.0,78,0.00,,SKC,0.00,VWS V14.01,2013-11-05 12:09:00,
2013-11-05 05:14:00,52.0,45.4,29.88,NE,45,2.0,3.0,78,0.00,,SKC,0.00,VWS V14.01,2013-11-05 12:14:00,
2013-11-05 05:19:00,52.0,45.0,29.88,NE,45,2.0,3.0,77,0.00,,SKC,0.00,VWS V14.01,2013-11-05 12:19:00,
2013-11-05 05:24:00,52.0,45.0,29.88,North,0,2.0,2.0,77,0.00,,SKC,0.00,VWS V14.01,2013-11-05 12:24:00,
2013-11-05 05:30:00,52.0,45.0,29.88,NNE,22,3.0,3.0,77,0.00,,SKC,0.00,VWS V14.01,2013-11-05 12:30:00,
2013-11-05 05:36:00,52.0,44.7,29.89,NNE,22,4.0,4.0,76,0.00,,SKC,0.00,VWS V14.01,2013-11-05 12:36:00,
2013-11-05 05:41:00,52.0,44.7,29.89,NNW,338,1.0,2.0,76,0.00,,SKC,0.00,VWS V14.01,2013-11-05 12:41:00,
2013-11-05 05:46:00,52.0,45.0,29.89,NNW,338,0.0,1.0,77,0.00,,SKC,0.00,VWS V14.01,2013-11-05 12:46:00,
2013-11-05 05:51:00,52.0,45.0,29.90,North,0,1.0,2.0,77,0.00,,SKC,0.00,VWS V14.01,2013-11-05 12:51:00,
2013-11-05 05:56:00,52.0,45.0,29.90,NNW,338,3.0,3.0,77,0.00,,SKC,0.00,VWS V14.01,2013-11-05 12:56:00,
2013-11-05 06:02:00,53.0,45.7,29.90,NNW,338,1.0,1.0,76,0.00,,SKC,0.00,VWS V14.01,2013-11-05 13:02:00,
2013-11-05 06:07:00,53.0,45.7,29.90,NNW,338,3.0,3.0,76,0.00,,SKC,0.00,VWS V14.01,2013-11-05 13:07:00,
2013-11-05 06:12:00,53.0,45.3,29.90,NNW,338,1.0,1.0,75,0.00,,SKC,0.00,VWS V14.01,2013-11-05 13:12:00,
2013-11-05 06:17:00,53.0,45.7,29.91,NNE,22,2.0,2.0,76,0.00,,SKC,0.00,VWS V14.01,2013-11-05 13:17:00,
2013-11-05 06:23:00,53.0,45.7,29.91,NNW,338,1.0,1.0,76,0.00,,SKC,0.00,VWS V14.01,2013-11-05 13:23:00,
2013-11-05 06:29:00,53.0,45.7,29.91,NNW,338,0.0,0.0,76,0.00,,SKC,0.00,VWS V14.01,2013-11-05 13:29:00,
2013-11-05 06:35:00,53.0,45.7,29.92,WSW,248,0.0,1.0,76,0.00,,SKC,0.00,VWS V14.01,2013-11-05 13:35:00,
2013-11-05 06:40:00,53.0,46.0,29.92,WSW,248,0.0,0.0,77,0.00,,SKC,0.00,VWS V14.01,2013-11-05 13:40:00,
2013-11-05 06:45:00,53.0,46.3,29.92,SW,225,0.0,0.0,78,0.00,,SKC,0.00,VWS V14.01,2013-11-05 13:45:00,
2013-11-05 06:50:00,52.0,45.4,29.92,SW,225,0.0,0.0,78,0.00,,SKC,0.00,VWS V14.01,2013-11-05 13:50:00,
2013-11-05 06:55:00,52.0,45.7,29.92,SW,225,0.0,0.0,79,0.00,,SKC,0.00,VWS V14.01,2013-11-05 13:55:00,
2013-11-05 07:01:00,51.0,45.4,29.93,NNE,22,1.0,1.0,81,0.00,,SKC,0.00,VWS V14.01,2013-11-05 14:01:00,
2013-11-05 07:06:00,51.0,45.7,29.93,NE,45,1.0,1.0,82,0.00,,SKC,0.00,VWS V14.01,2013-11-05 14:06:00,
2013-11-05 07:11:00,51.0,45.7,29.93,NNE,22,0.0,1.0,82,0.00,,SKC,0.00,VWS V14.01,2013-11-05 14:11:00,
2013-11-05 07:16:00,51.0,46.0,29.93,NNW,338,3.0,3.0,83,0.00,,SKC,0.00,VWS V14.01,2013-11-05 14:16:00,
2013-11-05 07:21:00,51.0,46.0,29.94,North,0,1.0,1.0,83,0.00,,SKC,0.00,VWS V14.01,2013-11-05 14:21:00,
2013-11-05 07:26:00,51.0,46.0,29.94,NNE,22,1.0,1.0,83,0.00,,SKC,0.00,VWS V14.01,2013-11-05 14:26:00,
2013-11-05 07:31:00,51.0,46.3,29.94,NNE,22,0.0,0.0,84,0.00,,SKC,0.00,VWS V14.01,2013-11-05 14:31:00,
2013-11-05 07:36:00,52.0,47.0,29.95,North,0,0.0,0.0,83,0.00,,SKC,0.00,VWS V14.01,2013-11-05 14:36:00,
2013-11-05 07:41:00,52.0,47.0,29.95,North,0,0.0,1.0,83,0.00,,SKC,0.00,VWS V14.01,2013-11-05 14:41:00,
2013-11-05 07:46:00,52.0,47.0,29.95,North,0,0.0,0.0,83,0.00,,SKC,0.00,VWS V14.01,2013-11-05 14:46:00,
2013-11-05 07:52:00,52.0,47.0,29.95,NE,45,1.0,2.0,83,0.00,,SKC,0.00,VWS V14.01,2013-11-05 14:52:00,
2013-11-05 07:57:00,52.0,46.7,29.95,NE,45,1.0,1.0,82,0.00,,SKC,0.00,VWS V14.01,2013-11-05 14:57:00,
2013-11-05 08:02:00,52.0,47.0,29.95,NE,45,0.0,1.0,83,0.00,,SKC,0.00,VWS V14.01,2013-11-05 15:02:00,
2013-11-05 08:07:00,53.0,48.0,29.96,NE,45,0.0,0.0,83,0.00,,SKC,0.00,VWS V14.01,2013-11-05 15:07:00,
2013-11-05 08:12:00,54.0,48.6,29.96,NE,45,1.0,1.0,82,0.00,,SKC,0.00,VWS V14.01,2013-11-05 15:12:00,
2013-11-05 08:17:00,55.0,48.3,29.96,NE,45,1.0,2.0,78,0.00,,SKC,0.00,VWS V14.01,2013-11-05 15:17:00,
2013-11-05 08:22:00,56.0,48.5,29.96,ENE,68,3.0,3.0,76,0.00,,SKC,0.00,VWS V14.01,2013-11-05 15:22:00,
2013-11-05 08:27:00,56.0,47.5,29.96,ENE,68,2.0,2.0,73,0.00,,SKC,0.00,VWS V14.01,2013-11-05 15:27:00,
2013-11-05 08:33:00,57.0,47.7,29.97,NE,45,1.0,2.0,71,0.00,,SKC,0.00,VWS V14.01,2013-11-05 15:33:00,
2013-11-05 08:39:00,58.0,47.9,29.97,ENE,68,2.0,3.0,69,0.00,,SKC,0.00,VWS V14.01,2013-11-05 15:39:00,
2013-11-05 08:44:00,58.0,47.5,29.97,ENE,68,1.0,1.0,68,0.00,,SKC,0.00,VWS V14.01,2013-11-05 15:44:00,
2013-11-05 08:50:00,59.0,47.7,29.97,NW,315,0.0,0.0,66,0.00,,SKC,0.00,VWS V14.01,2013-11-05 15:50:00,
2013-11-05 08:56:00,59.0,47.7,29.98,NNE,22,0.0,0.0,66,0.00,,SKC,0.00,VWS V14.01,2013-11-05 15:56:00,
2013-11-05 09:01:00,59.0,47.7,29.97,NW,315,0.0,1.0,66,0.00,,SKC,0.00,VWS V14.01,2013-11-05 16:01:00,
2013-11-05 09:06:00,60.0,47.8,29.97,SSE,158,1.0,1.0,64,0.00,,SKC,0.00,VWS V14.01,2013-11-05 16:06:00,
2013-11-05 09:11:00,60.0,47.4,29.97,SSE,158,1.0,1.0,63,0.00,,SKC,0.00,VWS V14.01,2013-11-05 16:11:00,
2013-11-05 09:16:00,60.0,47.0,29.97,WNW,292,2.0,3.0,62,0.00,,SKC,0.00,VWS V14.01,2013-11-05 16:16:00,
2013-11-05 09:21:00,60.0,47.0,29.97,West,270,3.0,4.0,62,0.00,,SKC,0.00,VWS V14.01,2013-11-05 16:21:00,
2013-11-05 09:27:00,60.0,47.0,29.97,SW,225,1.0,2.0,62,0.00,,SKC,0.00,VWS V14.01,2013-11-05 16:27:00,
2013-11-05 09:32:00,61.0,47.0,29.97,West,270,5.0,6.0,60,0.00,,SKC,0.00,VWS V14.01,2013-11-05 16:32:00,
2013-11-05 09:37:00,61.0,46.6,29.97,SSW,202,1.0,2.0,59,0.00,,SKC,0.00,VWS V14.01,2013-11-05 16:37:00,
2013-11-05 09:42:00,62.0,47.5,29.98,South,180,1.0,2.0,59,0.00,,SKC,0.00,VWS V14.01,2013-11-05 16:42:00,
2013-11-05 09:47:00,63.0,47.1,29.98,SW,225,3.0,4.0,56,0.00,,SKC,0.00,VWS V14.01,2013-11-05 16:47:00,
2013-11-05 09:52:00,62.0,46.6,29.97,WSW,248,2.0,2.0,57,0.00,,SKC,0.00,VWS V14.01,2013-11-05 16:52:00,
2013-11-05 09:57:00,62.0,46.1,29.97,SW,225,2.0,3.0,56,0.00,,SKC,0.00,VWS V14.01,2013-11-05 16:57:00,
2013-11-05 10:03:00,63.0,46.1,29.98,WSW,248,3.0,3.0,54,0.00,,SKC,0.00,VWS V14.01,2013-11-05 17:03:00,
2013-11-05 10:08:00,63.0,46.1,29.98,SW,225,3.0,3.0,54,0.00,,SKC,0.00,VWS V14.01,2013-11-05 17:08:00,
2013-11-05 10:13:00,63.0,45.6,29.98,WSW,248,4.0,5.0,53,0.00,,SKC,0.00,VWS V14.01,2013-11-05 17:13:00,
2013-11-05 10:18:00,63.0,45.6,29.98,SW,225,5.0,6.0,53,0.00,,SKC,0.00,VWS V14.01,2013-11-05 17:18:00,
2013-11-05 10:23:00,63.0,45.6,29.98,SSW,202,5.0,6.0,53,0.00,,SKC,0.00,VWS V14.01,2013-11-05 17:23:00,
2013-11-05 10:29:00,64.0,45.5,29.98,SW,225,3.0,4.0,51,0.00,,SKC,0.00,VWS V14.01,2013-11-05 17:29:00,
2013-11-05 10:34:00,63.0,44.6,29.98,West,270,15.0,15.0,51,0.00,,SKC,0.00,VWS V14.01,2013-11-05 17:34:00,
2013-11-05 10:39:00,63.0,44.1,29.99,WSW,248,6.0,6.0,50,0.00,,SKC,0.00,VWS V14.01,2013-11-05 17:39:00,
2013-11-05 10:45:00,64.0,45.0,29.99,South,180,1.0,3.0,50,0.00,,SKC,0.00,VWS V14.01,2013-11-05 17:45:00,
2013-11-05 10:50:00,65.0,44.8,29.99,SW,225,3.0,5.0,48,0.00,,SKC,0.00,VWS V14.01,2013-11-05 17:50:00,
2013-11-05 10:56:00,66.0,44.7,29.99,SSW,202,3.0,4.0,46,0.00,,SKC,0.00,VWS V14.01,2013-11-05 17:56:00,
2013-11-05 11:02:00,66.0,44.7,29.99,South,180,4.0,6.0,46,0.00,,SKC,0.00,VWS V14.01,2013-11-05 18:02:00,
2013-11-05 11:08:00,67.0,45.0,29.98,WSW,248,2.0,2.0,45,0.00,,SKC,0.00,VWS V14.01,2013-11-05 18:08:00,
2013-11-05 11:13:00,68.0,44.1,29.98,SE,135,2.0,3.0,42,0.00,,SKC,0.00,VWS V14.01,2013-11-05 18:13:00,
2013-11-05 11:18:00,68.0,44.7,29.98,South,180,1.0,1.0,43,0.00,,SKC,0.00,VWS V14.01,2013-11-05 18:18:00,
2013-11-05 11:23:00,66.0,45.8,29.98,WSW,248,5.0,6.0,48,0.00,,SKC,0.00,VWS V14.01,2013-11-05 18:23:00,
2013-11-05 11:28:00,66.0,45.8,29.98,SW,225,5.0,5.0,48,0.00,,SKC,0.00,VWS V14.01,2013-11-05 18:28:00,
2013-11-05 11:33:00,65.0,44.3,29.98,West,270,2.0,2.0,47,0.00,,SKC,0.00,VWS V14.01,2013-11-05 18:33:00,
2013-11-05 11:38:00,65.0,44.3,29.98,WSW,248,3.0,5.0,47,0.00,,SKC,0.00,VWS V14.01,2013-11-05 18:38:00,
2013-11-05 11:44:00,67.0,46.1,29.97,SSW,202,5.0,5.0,47,0.00,,SKC,0.00,VWS V14.01,2013-11-05 18:44:00,
2013-11-05 11:50:00,66.0,43.5,29.97,WSW,248,7.0,8.0,44,0.00,,SKC,0.00,VWS V14.01,2013-11-05 18:50:00,
2013-11-05 11:55:00,67.0,44.4,29.97,South,180,3.0,6.0,44,0.00,,SKC,0.00,VWS V14.01,2013-11-05 18:55:00,
2013-11-05 12:00:00,66.0,43.5,29.97,SW,225,2.0,3.0,44,0.00,,SKC,0.00,VWS V14.01,2013-11-05 19:00:00,
2013-11-05 12:05:00,66.0,43.5,29.97,SW,225,3.0,5.0,44,0.00,,SKC,0.00,VWS V14.01,2013-11-05 19:05:00,
2013-11-05 12:10:00,66.0,42.9,29.97,WSW,248,5.0,5.0,43,0.00,,SKC,0.00,VWS V14.01,2013-11-05 19:10:00,
2013-11-05 12:15:00,67.0,43.8,29.97,SW,225,3.0,5.0,43,0.00,,SKC,0.00,VWS V14.01,2013-11-05 19:15:00,
2013-11-05 12:20:00,67.0,43.8,29.97,WSW,248,7.0,8.0,43,0.00,,SKC,0.00,VWS V14.01,2013-11-05 19:20:00,
2013-11-05 12:25:00,67.0,43.8,29.97,West,270,4.0,5.0,43,0.00,,SKC,0.00,VWS V14.01,2013-11-05 19:25:00,
2013-11-05 12:30:00,67.0,42.5,29.97,West,270,4.0,4.0,41,0.00,,SKC,0.00,VWS V14.01,2013-11-05 19:30:00,
2013-11-05 12:35:00,67.0,42.5,29.96,East,90,1.0,2.0,41,0.00,,SKC,0.00,VWS V14.01,2013-11-05 19:35:00,
2013-11-05 12:41:00,67.0,42.5,29.97,WSW,248,6.0,6.0,41,0.00,,SKC,0.00,VWS V14.01,2013-11-05 19:41:00,
2013-11-05 12:46:00,67.0,41.9,29.96,NNW,338,3.0,5.0,40,0.00,,SKC,0.00,VWS V14.01,2013-11-05 19:46:00,
2013-11-05 12:51:00,69.0,44.3,29.96,SSW,202,3.0,3.0,41,0.00,,SKC,0.00,VWS V14.01,2013-11-05 19:51:00,
2013-11-05 12:56:00,69.0,44.3,29.96,SW,225,5.0,5.0,41,0.00,,SKC,0.00,VWS V14.01,2013-11-05 19:56:00,
2013-11-05 13:01:00,69.0,43.7,29.96,WSW,248,6.0,7.0,40,0.00,,SKC,0.00,VWS V14.01,2013-11-05 20:01:00,
2013-11-05 13:06:00,69.0,42.4,29.96,South,180,3.0,5.0,38,0.00,,SKC,0.00,VWS V14.01,2013-11-05 20:06:00,
2013-11-05 13:11:00,70.0,42.6,29.96,WSW,248,2.0,2.0,37,0.00,,SKC,0.00,VWS V14.01,2013-11-05 20:11:00,
2013-11-05 13:16:00,69.0,41.0,29.96,SW,225,3.0,5.0,36,0.00,,SKC,0.00,VWS V14.01,2013-11-05 20:16:00,
2013-11-05 13:21:00,69.0,38.7,29.96,South,180,3.0,3.0,33,0.00,,SKC,0.00,VWS V14.01,2013-11-05 20:21:00,
2013-11-05 13:26:00,69.0,39.5,29.95,WSW,248,2.0,3.0,34,0.00,,SKC,0.00,VWS V14.01,2013-11-05 20:26:00,
2013-11-05 13:32:00,69.0,39.5,29.95,East,90,1.0,2.0,34,0.00,,SKC,0.00,VWS V14.01,2013-11-05 20:32:00,
2013-11-05 13:37:00,69.0,41.0,29.95,West,270,9.0,9.0,36,0.00,,SKC,0.00,VWS V14.01,2013-11-05 20:37:00,
2013-11-05 13:42:00,69.0,42.4,29.95,NW,315,4.0,5.0,38,0.00,,SKC,0.00,VWS V14.01,2013-11-05 20:42:00,
2013-11-05 13:47:00,69.0,41.0,29.95,West,270,6.0,8.0,36,0.00,,SKC,0.00,VWS V14.01,2013-11-05 20:47:00,
2013-11-05 13:52:00,70.0,41.1,29.95,WSW,248,1.0,2.0,35,0.00,,SKC,0.00,VWS V14.01,2013-11-05 20:52:00,
2013-11-05 13:57:00,70.0,38.8,29.95,SSE,158,4.0,4.0,32,0.00,,SKC,0.00,VWS V14.01,2013-11-05 20:57:00,
2013-11-05 14:02:00,70.0,40.4,29.95,NNW,338,5.0,6.0,34,0.00,,SKC,0.00,VWS V14.01,2013-11-05 21:02:00,
2013-11-05 14:07:00,70.0,40.4,29.95,NW,315,3.0,4.0,34,0.00,,SKC,0.00,VWS V14.01,2013-11-05 21:07:00,
2013-11-05 14:12:00,70.0,39.6,29.95,ENE,68,1.0,1.0,33,0.00,,SKC,0.00,VWS V14.01,2013-11-05 21:12:00,
2013-11-05 14:17:00,71.0,41.2,29.95,WNW,292,3.0,3.0,34,0.00,,SKC,0.00,VWS V14.01,2013-11-05 21:17:00,
2013-11-05 14:22:00,69.0,40.2,29.95,WSW,248,6.0,6.0,35,0.00,,SKC,0.00,VWS V14.01,2013-11-05 21:22:00,
2013-11-05 14:27:00,69.0,40.2,29.95,West,270,5.0,5.0,35,0.00,,SKC,0.00,VWS V14.01,2013-11-05 21:27:00,
2013-11-05 14:32:00,69.0,40.2,29.95,NNE,22,1.0,2.0,35,0.00,,SKC,0.00,VWS V14.01,2013-11-05 21:32:00,
2013-11-05 14:37:00,69.0,40.2,29.95,WSW,248,5.0,6.0,35,0.00,,SKC,0.00,VWS V14.01,2013-11-05 21:37:00,
2013-11-05 14:42:00,69.0,40.2,29.95,West,270,5.0,5.0,35,0.00,,SKC,0.00,VWS V14.01,2013-11-05 21:42:00,
2013-11-05 14:47:00,69.0,41.0,29.95,WSW,248,2.0,3.0,36,0.00,,SKC,0.00,VWS V14.01,2013-11-05 21:47:00,
2013-11-05 14:52:00,69.0,42.4,29.96,WNW,292,6.0,8.0,38,0.00,,SKC,0.00,VWS V14.01,2013-11-05 21:52:00,
2013-11-05 14:57:00,69.0,43.0,29.96,NNW,338,5.0,6.0,39,0.00,,SKC,0.00,VWS V14.01,2013-11-05 21:57:00,
2013-11-05 15:02:00,69.0,41.7,29.96,NNW,338,5.0,6.0,37,0.00,,SKC,0.00,VWS V14.01,2013-11-05 22:02:00,
2013-11-05 15:07:00,69.0,41.0,29.96,NW,315,9.0,10.0,36,0.00,,SKC,0.00,VWS V14.01,2013-11-05 22:07:00,
2013-11-05 15:12:00,69.0,41.7,29.96,NW,315,4.0,6.0,37,0.00,,SKC,0.00,VWS V14.01,2013-11-05 22:12:00,
2013-11-05 15:17:00,69.0,42.4,29.96,WNW,292,4.0,5.0,38,0.00,,SKC,0.00,VWS V14.01,2013-11-05 22:17:00,
2013-11-05 15:22:00,68.0,41.5,29.96,West,270,8.0,8.0,38,0.00,,SKC,0.00,VWS V14.01,2013-11-05 22:22:00,
2013-11-05 15:27:00,68.0,44.1,29.96,WNW,292,8.0,8.0,42,0.00,,SKC,0.00,VWS V14.01,2013-11-05 22:27:00,
2013-11-05 15:32:00,68.0,43.5,29.96,NW,315,8.0,8.0,41,0.00,,SKC,0.00,VWS V14.01,2013-11-05 22:32:00,
2013-11-05 15:37:00,69.0,43.0,29.96,NW,315,4.0,4.0,39,0.00,,SKC,0.00,VWS V14.01,2013-11-05 22:37:00,
2013-11-05 15:42:00,69.0,43.7,29.96,WSW,248,6.0,6.0,40,0.00,,SKC,0.00,VWS V14.01,2013-11-05 22:42:00,
2013-11-05 15:47:00,68.0,43.5,29.96,WNW,292,7.0,7.0,41,0.00,,SKC,0.00,VWS V14.01,2013-11-05 22:47:00,
2013-11-05 15:52:00,68.0,44.1,29.96,WNW,292,9.0,10.0,42,0.00,,SKC,0.00,VWS V14.01,2013-11-05 22:52:00,
2013-11-05 15:57:00,68.0,44.1,29.97,West,270,7.0,12.0,42,0.00,,SKC,0.00,VWS V14.01,2013-11-05 22:57:00,
2013-11-05 16:02:00,68.0,44.1,29.97,NW,315,10.0,10.0,42,0.00,,SKC,0.00,VWS V14.01,2013-11-05 23:02:00,
2013-11-05 16:07:00,68.0,44.1,29.97,NNW,338,6.0,6.0,42,0.00,,SKC,0.00,VWS V14.01,2013-11-05 23:07:00,
2013-11-05 16:12:00,68.0,44.1,29.97,WNW,292,3.0,5.0,42,0.00,,SKC,0.00,VWS V14.01,2013-11-05 23:12:00,
2013-11-05 16:17:00,68.0,44.1,29.97,West,270,6.0,6.0,42,0.00,,SKC,0.00,VWS V14.01,2013-11-05 23:17:00,
2013-11-05 16:22:00,68.0,44.7,29.97,NNW,338,6.0,6.0,43,0.00,,SKC,0.00,VWS V14.01,2013-11-05 23:22:00,
2013-11-05 16:27:00,67.0,43.2,29.97,WSW,248,8.0,13.0,42,0.00,,SKC,0.00,VWS V14.01,2013-11-05 23:27:00,
2013-11-05 16:32:00,67.0,43.8,29.97,WNW,292,5.0,9.0,43,0.00,,SKC,0.00,VWS V14.01,2013-11-05 23:32:00,
2013-11-05 16:37:00,67.0,44.4,29.97,West,270,9.0,10.0,44,0.00,,SKC,0.00,VWS V14.01,2013-11-05 23:37:00,
2013-11-05 16:42:00,66.0,43.5,29.98,West,270,10.0,13.0,44,0.00,,SKC,0.00,VWS V14.01,2013-11-05 23:42:00,
2013-11-05 16:47:00,66.0,44.1,29.98,WNW,292,10.0,10.0,45,0.00,,SKC,0.00,VWS V14.01,2013-11-05 23:47:00,
2013-11-05 16:52:00,66.0,44.1,29.98,WNW,292,6.0,10.0,45,0.00,,SKC,0.00,VWS V14.01,2013-11-05 23:52:00,
2013-11-05 16:57:00,66.0,44.1,29.98,West,270,8.0,11.0,45,0.00,,SKC,0.00,VWS V14.01,2013-11-05 23:57:00,
2013-11-05 17:02:00,65.0,43.7,29.98,WNW,292,8.0,10.0,46,0.00,,SKC,0.00,VWS V14.01,2013-11-06 00:02:00,
2013-11-05 17:07:00,65.0,43.7,29.98,West,270,8.0,9.0,46,0.00,,SKC,0.00,VWS V14.01,2013-11-06 00:07:00,
2013-11-05 17:12:00,65.0,43.2,29.98,NW,315,8.0,10.0,45,0.00,,SKC,0.00,VWS V14.01,2013-11-06 00:12:00,
2013-11-05 17:17:00,65.0,43.7,29.98,NW,315,5.0,6.0,46,0.00,,SKC,0.00,VWS V14.01,2013-11-06 00:17:00,
2013-11-05 17:22:00,65.0,43.7,29.99,NNW,338,9.0,9.0,46,0.00,,SKC,0.00,VWS V14.01,2013-11-06 00:22:00,
2013-11-05 17:27:00,65.0,44.3,29.99,NW,315,7.0,7.0,47,0.00,,SKC,0.00,VWS V14.01,2013-11-06 00:27:00,
2013-11-05 17:32:00,65.0,44.3,29.99,NW,315,3.0,4.0,47,0.00,,SKC,0.00,VWS V14.01,2013-11-06 00:32:00,
2013-11-05 17:37:00,64.0,43.9,29.99,NNW,338,2.0,3.0,48,0.00,,SKC,0.00,VWS V14.01,2013-11-06 00:37:00,
2013-11-05 17:42:00,64.0,43.9,29.99,NNW,338,3.0,3.0,48,0.00,,SKC,0.00,VWS V14.01,2013-11-06 00:42:00,
2013-11-05 17:47:00,64.0,43.9,29.99,NNW,338,5.0,5.0,48,0.00,,SKC,0.00,VWS V14.01,2013-11-06 00:47:00,
2013-11-05 17:52:00,64.0,44.5,30.00,NNW,338,3.0,4.0,49,0.00,,SKC,0.00,VWS V14.01,2013-11-06 00:52:00,
2013-11-05 17:57:00,63.0,43.6,30.00,North,0,4.0,4.0,49,0.00,,SKC,0.00,VWS V14.01,2013-11-06 00:57:00,
2013-11-05 18:02:00,63.0,43.6,30.00,NNW,338,4.0,5.0,49,0.00,,SKC,0.00,VWS V14.01,2013-11-06 01:02:00,
2013-11-05 18:07:00,63.0,44.1,30.00,NW,315,3.0,3.0,50,0.00,,SKC,0.00,VWS V14.01,2013-11-06 01:07:00,
2013-11-05 18:12:00,63.0,44.1,30.00,NNW,338,5.0,6.0,50,0.00,,SKC,0.00,VWS V14.01,2013-11-06 01:12:00,
2013-11-05 18:17:00,63.0,44.1,30.01,NNW,338,4.0,5.0,50,0.00,,SKC,0.00,VWS V14.01,2013-11-06 01:17:00,
2013-11-05 18:22:00,63.0,44.1,30.01,NNW,338,4.0,6.0,50,0.00,,SKC,0.00,VWS V14.01,2013-11-06 01:22:00,
2013-11-05 18:27:00,62.0,43.7,30.01,NNW,338,3.0,4.0,51,0.00,,SKC,0.00,VWS V14.01,2013-11-06 01:27:00,
2013-11-05 18:32:00,62.0,43.7,30.02,NW,315,4.0,4.0,51,0.00,,SKC,0.00,VWS V14.01,2013-11-06 01:32:00,
2013-11-05 18:37:00,62.0,43.7,30.02,NW,315,0.0,1.0,51,0.00,,SKC,0.00,VWS V14.01,2013-11-06 01:37:00,
2013-11-05 18:42:00,62.0,43.7,30.02,NNW,338,3.0,4.0,51,0.00,,SKC,0.00,VWS V14.01,2013-11-06 01:42:00,
2013-11-05 18:47:00,62.0,43.7,30.03,NE,45,1.0,2.0,51,0.00,,SKC,0.00,VWS V14.01,2013-11-06 01:47:00,
2013-11-05 18:52:00,62.0,44.2,30.03,NE,45,1.0,1.0,52,0.00,,SKC,0.00,VWS V14.01,2013-11-06 01:52:00,
2013-11-05 18:57:00,61.0,43.3,30.03,NE,45,1.0,1.0,52,0.00,,SKC,0.00,VWS V14.01,2013-11-06 01:57:00,
2013-11-05 19:02:00,61.0,43.8,30.03,ENE,68,1.0,1.0,53,0.00,,SKC,0.00,VWS V14.01,2013-11-06 02:02:00,
2013-11-05 19:07:00,61.0,44.2,30.04,ENE,68,3.0,3.0,54,0.00,,SKC,0.00,VWS V14.01,2013-11-06 02:07:00,
2013-11-05 19:12:00,61.0,44.2,30.04,ENE,68,1.0,1.0,54,0.00,,SKC,0.00,VWS V14.01,2013-11-06 02:12:00,
2013-11-05 19:17:00,61.0,44.2,30.04,NE,45,2.0,3.0,54,0.00,,SKC,0.00,VWS V14.01,2013-11-06 02:17:00,
2013-11-05 19:22:00,61.0,44.2,30.04,NE,45,1.0,1.0,54,0.00,,SKC,0.00,VWS V14.01,2013-11-06 02:22:00,
2013-11-05 19:27:00,61.0,44.2,30.04,NE,45,1.0,2.0,54,0.00,,SKC,0.00,VWS V14.01,2013-11-06 02:27:00,
2013-11-05 19:32:00,61.0,44.2,30.04,NE,45,1.0,2.0,54,0.00,,SKC,0.00,VWS V14.01,2013-11-06 02:32:00,
2013-11-05 19:37:00,61.0,44.2,30.04,NE,45,1.0,2.0,54,0.00,,SKC,0.00,VWS V14.01,2013-11-06 02:37:00,
2013-11-05 19:42:00,61.0,44.2,30.04,NE,45,1.0,1.0,54,0.00,,SKC,0.00,VWS V14.01,2013-11-06 02:42:00,
2013-11-05 19:47:00,60.0,43.3,30.04,ENE,68,2.0,3.0,54,0.00,,SKC,0.00,VWS V14.01,2013-11-06 02:47:00,
2013-11-05 19:52:00,60.0,43.8,30.04,ENE,68,3.0,3.0,55,0.00,,SKC,0.00,VWS V14.01,2013-11-06 02:52:00,
2013-11-05 19:57:00,60.0,43.8,30.04,NE,45,2.0,3.0,55,0.00,,SKC,0.00,VWS V14.01,2013-11-06 02:57:00,
2013-11-05 20:02:00,60.0,43.8,30.05,NE,45,3.0,4.0,55,0.00,,SKC,0.00,VWS V14.01,2013-11-06 03:02:00,
2013-11-05 20:07:00,60.0,43.8,30.05,ENE,68,3.0,3.0,55,0.00,,SKC,0.00,VWS V14.01,2013-11-06 03:07:00,
2013-11-05 20:12:00,60.0,43.8,30.05,NE,45,5.0,6.0,55,0.00,,SKC,0.00,VWS V14.01,2013-11-06 03:12:00,
2013-11-05 20:17:00,60.0,44.3,30.05,ENE,68,3.0,3.0,56,0.00,,SKC,0.00,VWS V14.01,2013-11-06 03:17:00,
2013-11-05 20:22:00,60.0,44.3,30.05,NE,45,3.0,3.0,56,0.00,,SKC,0.00,VWS V14.01,2013-11-06 03:22:00,
2013-11-05 20:27:00,60.0,44.3,30.05,NE,45,1.0,2.0,56,0.00,,SKC,0.00,VWS V14.01,2013-11-06 03:27:00,
2013-11-05 20:32:00,59.0,43.8,30.06,ENE,68,1.0,3.0,57,0.00,,SKC,0.00,VWS V14.01,2013-11-06 03:32:00,
2013-11-05 20:37:00,59.0,43.8,30.06,NE,45,2.0,3.0,57,0.00,,SKC,0.00,VWS V14.01,2013-11-06 03:37:00,
2013-11-05 20:42:00,59.0,43.8,30.06,NE,45,3.0,3.0,57,0.00,,SKC,0.00,VWS V14.01,2013-11-06 03:42:00,
2013-11-05 20:47:00,59.0,43.8,30.06,NNW,338,2.0,3.0,57,0.00,,SKC,0.00,VWS V14.01,2013-11-06 03:47:00,
2013-11-05 20:52:00,59.0,43.8,30.06,North,0,4.0,4.0,57,0.00,,SKC,0.00,VWS V14.01,2013-11-06 03:52:00,
2013-11-05 20:57:00,59.0,44.3,30.06,NNE,22,5.0,5.0,58,0.00,,SKC,0.00,VWS V14.01,2013-11-06 03:57:00,
2013-11-05 21:02:00,59.0,44.3,30.06,NNW,338,3.0,4.0,58,0.00,,SKC,0.00,VWS V14.01,2013-11-06 04:02:00,
2013-11-05 21:07:00,59.0,44.3,30.06,North,0,5.0,5.0,58,0.00,,SKC,0.00,VWS V14.01,2013-11-06 04:07:00,
2013-11-05 21:12:00,59.0,44.3,30.07,NNE,22,2.0,3.0,58,0.00,,SKC,0.00,VWS V14.01,2013-11-06 04:12:00,
2013-11-05 21:17:00,58.0,43.3,30.06,North,0,3.0,5.0,58,0.00,,SKC,0.00,VWS V14.01,2013-11-06 04:17:00,
2013-11-05 21:22:00,58.0,43.8,30.07,North,0,3.0,3.0,59,0.00,,SKC,0.00,VWS V14.01,2013-11-06 04:22:00,
2013-11-05 21:27:00,58.0,44.2,30.07,North,0,3.0,3.0,60,0.00,,SKC,0.00,VWS V14.01,2013-11-06 04:27:00,
2013-11-05 21:32:00,58.0,44.2,30.07,NE,45,2.0,3.0,60,0.00,,SKC,0.00,VWS V14.01,2013-11-06 04:32:00,
2013-11-05 21:37:00,57.0,43.7,30.07,NE,45,5.0,5.0,61,0.00,,SKC,0.00,VWS V14.01,2013-11-06 04:37:00,
2013-11-05 21:42:00,57.0,44.1,30.07,NE,45,3.0,5.0,62,0.00,,SKC,0.00,VWS V14.01,2013-11-06 04:42:00,
2013-11-05 21:47:00,57.0,44.1,30.07,NE,45,2.0,3.0,62,0.00,,SKC,0.00,VWS V14.01,2013-11-06 04:47:00,
2013-11-05 21:52:00,56.0,43.6,30.07,NE,45,3.0,3.0,63,0.00,,SKC,0.00,VWS V14.01,2013-11-06 04:52:00,
2013-11-05 21:57:00,56.0,44.0,30.08,NNW,338,2.0,2.0,64,0.00,,SKC,0.00,VWS V14.01,2013-11-06 04:57:00,
2013-11-05 22:01:00,56.0,44.4,30.08,North,0,2.0,2.0,65,0.00,,SKC,0.00,VWS V14.01,2013-11-06 05:01:00,
2013-11-05 22:02:00,56.0,44.4,30.08,NNW,338,2.0,3.0,65,0.00,,SKC,0.00,VWS V14.01,2013-11-06 05:02:00,
2013-11-05 22:04:00,56.0,44.4,30.08,NNE,22,4.0,5.0,65,0.00,,SKC,0.00,VWS V14.01,2013-11-06 05:04:00,
2013-11-05 22:05:00,56.0,44.4,30.08,North,0,2.0,3.0,65,0.00,,SKC,0.00,VWS V14.01,2013-11-06 05:05:00,
2013-11-05 22:07:00,56.0,44.0,30.08,North,0,2.0,3.0,64,0.00,,SKC,0.00,VWS V14.01,2013-11-06 05:07:00,
2013-11-05 22:10:00,56.0,44.0,30.07,NE,45,3.0,3.0,64,0.00,,SKC,0.00,VWS V14.01,2013-11-06 05:10:00,
2013-11-05 22:15:00,56.0,43.6,30.08,North,0,5.0,5.0,63,0.00,,SKC,0.00,VWS V14.01,2013-11-06 05:15:00,
2013-11-05 22:20:00,56.0,43.6,30.08,East,90,3.0,5.0,63,0.00,,SKC,0.00,VWS V14.01,2013-11-06 05:20:00,
2013-11-05 22:26:00,56.0,43.2,30.08,NNW,338,3.0,3.0,62,0.00,,SKC,0.00,VWS V14.01,2013-11-06 05:26:00,
2013-11-05 22:31:00,56.0,42.8,30.08,NE,45,4.0,4.0,61,0.00,,SKC,0.00,VWS V14.01,2013-11-06 05:31:00,
2013-11-05 22:36:00,56.0,42.8,30.08,NNW,338,3.0,5.0,61,0.00,,SKC,0.00,VWS V14.01,2013-11-06 05:36:00,
2013-11-05 22:42:00,56.0,42.3,30.08,NNE,22,5.0,6.0,60,0.00,,SKC,0.00,VWS V14.01,2013-11-06 05:42:00,
2013-11-05 22:47:00,56.0,42.3,30.08,ENE,68,3.0,5.0,60,0.00,,SKC,0.00,VWS V14.01,2013-11-06 05:47:00,
2013-11-05 22:52:00,56.0,41.9,30.08,NNW,338,3.0,4.0,59,0.00,,SKC,0.00,VWS V14.01,2013-11-06 05:52:00,
2013-11-05 22:57:00,56.0,41.5,30.08,NE,45,5.0,6.0,58,0.00,,SKC,0.00,VWS V14.01,2013-11-06 05:57:00,
2013-11-05 23:03:00,57.0,41.5,30.08,NNW,338,5.0,6.0,56,0.00,,SKC,0.00,VWS V14.01,2013-11-06 06:03:00,
2013-11-05 23:09:00,57.0,40.1,30.08,NE,45,4.0,6.0,53,0.00,,SKC,0.00,VWS V14.01,2013-11-06 06:09:00,
2013-11-05 23:14:00,57.0,38.6,30.08,NNE,22,7.0,9.0,50,0.00,,SKC,0.00,VWS V14.01,2013-11-06 06:14:00,
2013-11-05 23:19:00,57.0,38.0,30.08,NNE,22,5.0,7.0,49,0.00,,SKC,0.00,VWS V14.01,2013-11-06 06:19:00,
2013-11-05 23:24:00,57.0,37.0,30.08,NNE,22,6.0,6.0,47,0.00,,SKC,0.00,VWS V14.01,2013-11-06 06:24:00,
2013-11-05 23:29:00,57.0,36.4,30.08,NE,45,8.0,11.0,46,0.00,,SKC,0.00,VWS V14.01,2013-11-06 06:29:00,
2013-11-05 23:34:00,57.0,35.9,30.08,North,0,4.0,6.0,45,0.00,,SKC,0.00,VWS V14.01,2013-11-06 06:34:00,
2013-11-05 23:39:00,57.0,35.9,30.08,NE,45,6.0,6.0,45,0.00,,SKC,0.00,VWS V14.01,2013-11-06 06:39:00,
2013-11-05 23:44:00,56.0,34.4,30.08,North,0,5.0,5.0,44,0.00,,SKC,0.00,VWS V14.01,2013-11-06 06:44:00,
2013-11-05 23:49:00,56.0,33.8,30.08,NNW,338,6.0,8.0,43,0.00,,SKC,0.00,VWS V14.01,2013-11-06 06:49:00,
2013-11-05 23:54:00,56.0,33.2,30.08,North,0,6.0,11.0,42,0.00,,SKC,0.00,VWS V14.01,2013-11-06 06:54:00,
2013-11-05 23:59:00,56.0,32.7,30.08,NE,45,6.0,6.0,41,0.00,,SKC,0.00,VWS V14.01,2013-11-06 06:59:00,